Time;durP1;ratioP1;P1;durP2;ratioP2;P2;SDS_P1;SDS_P2;PMS_P1;PMS_P2;Temp;Humidity;BMP_temperature;BMP_pressure;BME280_temperature;BME280_humidity;BME280_pressure;Samples;Min_cycle;Max_cycle;Signal;HPM_P1;HPM_P2
2024/01/06 00:01:24;;;;;;;4.70;4.23;;;4.90;96.60;;;6.42;69.46;100191.84;3082084;46;20458;-68
2024/01/06 00:03:52;;;;;;;4.80;4.20;;;4.80;96.60;;;6.43;69.79;100197.91;3081902;46;20511;-68
2024/01/06 00:06:21;;;;;;;5.00;4.50;;;4.80;96.80;;;6.44;69.76;100197.72;3081960;46;20571;-69
2024/01/06 00:08:53;;;;;;;4.87;4.23;;;4.80;96.80;;;6.44;69.60;100195.13;3081969;46;20450;-68
2024/01/06 00:11:23;;;;;;;5.10;4.50;;;4.80;96.70;;;6.46;69.84;100203.66;3082280;46;20451;-68
2024/01/06 00:13:51;;;;;;;5.00;4.47;;;4.80;96.80;;;6.46;69.57;100201.03;3082602;46;20434;-68
2024/01/06 00:16:20;;;;;;;5.03;4.10;;;4.90;96.70;;;6.47;69.46;100207.06;3082315;46;20983;-68
2024/01/06 00:18:52;;;;;;;6.47;4.53;;;4.90;96.60;;;6.42;69.31;100204.94;3081910;46;20459;-67
2024/01/06 00:21:21;;;;;;;5.30;4.63;;;4.80;96.50;;;6.40;69.53;100208.69;3082282;46;20467;-67
2024/01/06 00:23:49;;;;;;;4.77;4.37;;;4.80;96.50;;;6.39;69.57;100207.88;3081668;46;20450;-68
2024/01/06 00:26:17;;;;;;;5.30;4.27;;;4.80;96.60;;;6.42;69.94;100207.53;3081950;46;20431;-69
2024/01/06 00:28:48;;;;;;;6.47;4.63;;;4.80;96.80;;;6.43;69.61;100219.63;3081828;46;21132;-68
2024/01/06 00:31:17;;;;;;;5.40;4.63;;;4.80;96.70;;;6.44;69.61;100223.88;3082329;46;20556;-68
2024/01/06 00:33:46;;;;;;;5.50;4.40;;;4.80;96.70;;;6.44;69.45;100225.69;3082171;46;20435;-68
2024/01/06 00:36:14;;;;;;;4.53;4.03;;;4.80;96.60;;;6.39;69.20;100234.03;3082051;46;20427;-67
2024/01/06 00:38:43;;;;;;;5.13;4.20;;;4.80;96.40;;;6.34;69.49;100238.91;3081433;46;20453;-68
2024/01/06 00:41:11;;;;;;;4.30;3.90;;;4.80;96.40;;;6.31;69.47;100236.59;3081588;46;20558;-66
2024/01/06 00:43:40;;;;;;;4.80;4.10;;;4.80;96.50;;;6.29;69.50;100232.50;3082003;46;20452;-68
2024/01/06 00:46:08;;;;;;;4.73;4.27;;;4.80;96.50;;;6.26;69.62;100233.66;3081727;46;20434;-68
2024/01/06 00:48:37;;;;;;;4.23;3.77;;;4.70;96.50;;;6.22;69.61;100232.34;3080513;46;21006;-67
2024/01/06 00:51:05;;;;;;;5.73;4.10;;;4.70;96.50;;;6.22;69.89;100240.16;3081787;46;20580;-68
2024/01/06 00:53:34;;;;;;;5.47;4.47;;;4.70;96.70;;;6.23;70.01;100241.78;3081975;46;20580;-68
2024/01/06 00:56:03;;;;;;;4.63;4.13;;;4.70;96.90;;;6.27;70.14;100239.69;3081656;46;20434;-67
2024/01/06 00:58:31;;;;;;;4.70;4.23;;;4.60;96.90;;;6.30;70.07;100250.63;3081557;46;20443;-67
2024/01/06 01:00:59;;;;;;;5.17;4.33;;;4.70;96.90;;;6.28;69.83;100249.97;3081889;46;20972;-68
2024/01/06 01:03:28;;;;;;;4.23;3.77;;;4.70;96.80;;;6.26;69.80;100251.94;3081944;46;20456;-68
2024/01/06 01:05:56;;;;;;;5.73;3.87;;;4.70;96.70;;;6.23;69.50;100254.84;3081615;46;20528;-68
2024/01/06 01:08:25;;;;;;;4.53;3.90;;;4.70;96.60;;;6.22;69.86;100258.47;3081130;46;20458;-68
2024/01/06 01:10:54;;;;;;;6.00;4.53;;;4.70;96.70;;;6.22;69.94;100258.47;3081569;46;21018;-66
2024/01/06 01:13:23;;;;;;;4.30;3.90;;;4.60;96.70;;;6.18;69.42;100253.72;3081973;46;20434;-68
2024/01/06 01:15:51;;;;;;;4.83;4.30;;;4.60;96.50;;;6.14;69.73;100269.69;3080831;46;20450;-68
2024/01/06 01:18:19;;;;;;;4.37;3.67;;;4.60;96.50;;;6.13;69.78;100269.88;3081222;46;20443;-68
2024/01/06 01:20:48;;;;;;;6.50;4.37;;;4.50;96.60;;;6.10;69.76;100265.78;3081547;46;20434;-68
2024/01/06 01:23:16;;;;;;;4.90;4.40;;;4.50;96.50;;;6.07;70.00;100268.69;3081483;46;20486;-68
2024/01/06 01:25:45;;;;;;;5.93;4.30;;;4.50;96.60;;;6.04;69.88;100270.78;3081770;46;20563;-67
2024/01/06 01:28:14;;;;;;;5.60;4.53;;;4.50;96.70;;;6.01;69.93;100271.91;3080866;46;21010;-67
2024/01/06 01:30:42;;;;;;;4.10;3.67;;;4.50;96.70;;;6.00;70.18;100285.13;3080893;46;20433;-68
2024/01/06 01:33:11;;;;;;;4.60;3.90;;;4.40;96.80;;;6.00;70.41;100285.13;3081678;46;20427;-68
2024/01/06 01:35:39;;;;;;;5.07;4.57;;;4.50;97.00;;;6.01;70.44;100284.19;3081628;46;20525;-67
2024/01/06 01:38:08;;;;;;;4.17;3.60;;;4.50;97.10;;;6.03;70.34;100287.44;3081045;46;20447;-68
2024/01/06 01:40:36;;;;;;;3.83;3.40;;;4.40;96.90;;;6.01;70.31;100297.22;3081372;46;20493;-67
2024/01/06 01:43:05;;;;;;;4.67;3.90;;;4.40;96.90;;;5.99;70.22;100293.97;3081267;46;20576;-67
2024/01/06 01:45:33;;;;;;;5.00;3.37;;;4.40;96.80;;;5.98;70.36;100302.75;3081497;46;20434;-67
2024/01/06 01:48:02;;;;;;;4.20;3.40;;;4.40;96.90;;;5.95;70.31;100309.13;3080970;46;20538;-67
2024/01/06 01:50:31;;;;;;;5.03;4.40;;;4.40;96.90;;;5.90;70.40;100315.75;3081164;46;20568;-68
2024/01/06 01:53:00;;;;;;;4.97;3.50;;;4.40;96.90;;;5.88;70.54;100315.94;3081401;46;20443;-68
2024/01/06 01:55:28;;;;;;;4.47;3.70;;;4.40;96.90;;;5.85;70.51;100316.22;3081145;46;20525;-67
2024/01/06 01:57:56;;;;;;;4.87;3.80;;;4.30;96.90;;;5.83;70.70;100315.53;3080909;46;20576;-67
2024/01/06 02:00:25;;;;;;;4.70;4.20;;;4.30;97.00;;;5.83;70.75;100312.09;3081332;46;20452;-68
2024/01/06 02:02:54;;;;;;;4.87;3.73;;;4.30;97.00;;;5.85;71.04;100318.84;3081035;46;20439;-68
2024/01/06 02:05:22;;;;;;;4.93;3.60;;;4.30;97.30;;;5.88;71.00;100321.16;3081455;46;20494;-67
2024/01/06 02:07:51;;;;;;;4.20;3.80;;;4.30;97.30;;;5.91;70.94;100325.25;3080815;46;20450;-67
2024/01/06 02:10:19;;;;;;;4.37;3.63;;;4.30;97.30;;;5.91;70.71;100325.25;3081014;46;20448;-67
2024/01/06 02:12:51;;;;;;;4.60;3.80;;;4.30;97.10;;;5.90;70.53;100331.44;3081293;46;20558;-68
2024/01/06 02:15:20;;;;;;;5.07;4.33;;;4.30;97.10;;;5.90;70.61;100336.66;3080986;46;20548;-67
2024/01/06 02:17:48;;;;;;;4.27;3.87;;;4.30;97.00;;;5.87;70.45;100336.97;3080421;46;20477;-68
2024/01/06 02:20:19;;;;;;;5.43;3.93;;;4.30;96.90;;;5.87;70.65;100334.38;3080949;46;20467;-68
2024/01/06 02:22:48;;;;;;;6.87;5.03;;;4.30;97.00;;;5.89;70.77;100329.81;3080877;46;20489;-67
2024/01/06 02:25:18;;;;;;;3.53;3.23;;;4.40;97.20;;;5.89;70.59;100335.03;3081181;46;21013;-68
2024/01/06 02:27:46;;;;;;;4.07;3.67;;;4.30;97.00;;;5.87;70.37;100336.97;3082471;46;20450;-67
2024/01/06 02:30:15;;;;;;;4.60;4.00;;;4.30;96.90;;;5.80;70.27;100341.94;3083449;46;20437;-68
2024/01/06 02:32:43;;;;;;;5.10;4.07;;;4.30;96.80;;;5.79;70.43;100335.09;3083136;46;20445;-65
2024/01/06 02:35:12;;;;;;;4.50;3.87;;;4.30;96.80;;;5.80;70.50;100349.00;3083329;46;20434;-69
2024/01/06 02:37:40;;;;;;;4.00;3.50;;;4.30;96.80;;;5.76;70.30;100355.47;3082837;46;21279;-67
2024/01/06 02:40:10;;;;;;;4.07;3.67;;;4.30;96.80;;;5.73;70.17;100355.78;3083391;46;20433;-67
2024/01/06 02:42:38;;;;;;;4.37;3.93;;;4.20;96.70;;;5.69;70.17;100354.44;3083112;46;20434;-67
2024/01/06 02:45:11;;;;;;;4.43;4.03;;;4.20;96.60;;;5.63;70.08;100355.06;3083624;46;21028;-67
2024/01/06 02:47:39;;;;;;;6.43;4.37;;;4.20;96.50;;;5.60;70.49;100365.78;3082856;46;21106;-66
2024/01/06 02:50:08;;;;;;;5.40;4.00;;;4.10;96.60;;;5.56;70.50;100367.09;3082706;46;20438;-67
2024/01/06 02:52:36;;;;;;;4.80;4.17;;;4.10;96.70;;;5.56;70.83;100369.69;3083116;46;20427;-67
2024/01/06 02:55:05;;;;;;;4.40;4.00;;;4.10;96.70;;;5.53;70.49;100367.38;3083274;46;20451;-68
2024/01/06 02:57:34;;;;;;;4.30;3.87;;;4.10;96.70;;;5.52;70.55;100373.56;3082697;46;20442;-67
2024/01/06 03:00:03;;;;;;;4.97;3.70;;;4.00;96.70;;;5.54;70.69;100377.66;3083100;46;20458;-68
2024/01/06 03:02:32;;;;;;;4.93;4.13;;;4.00;96.90;;;5.53;70.50;100380.44;3083016;46;20430;-68
2024/01/06 03:05:01;;;;;;;5.00;4.20;;;4.00;96.90;;;5.51;70.54;100377.16;3083395;46;21070;-67
2024/01/06 03:07:31;;;;;;;5.40;4.00;;;4.00;96.70;;;5.52;70.63;100378.78;3082335;46;20501;-68
2024/01/06 03:09:59;;;;;;;4.43;3.90;;;4.00;96.90;;;5.53;70.45;100376.03;3082439;46;20547;-67
2024/01/06 03:12:28;;;;;;;5.53;4.03;;;4.00;96.80;;;5.58;70.76;100378.19;3082625;46;20437;-69
2024/01/06 03:14:56;;;;;;;5.20;3.80;;;4.00;97.10;;;5.56;70.30;100386.19;3082858;46;20469;-67
2024/01/06 03:17:25;;;;;;;4.07;3.50;;;4.00;96.80;;;5.51;70.12;100387.59;3082370;46;21050;-67
2024/01/06 03:19:53;;;;;;;4.77;3.73;;;4.00;96.70;;;5.51;70.59;100387.59;3083096;46;20431;-67
2024/01/06 03:22:21;;;;;;;5.17;4.13;;;4.00;96.90;;;5.52;70.48;100389.22;3082774;46;20455;-68
2024/01/06 03:24:50;;;;;;;5.40;3.80;;;4.00;96.80;;;5.47;70.16;100393.09;3082746;46;20437;-69
2024/01/06 03:27:18;;;;;;;8.60;6.10;;;4.00;96.60;;;5.47;70.31;100398.31;3082390;46;20497;-69
2024/01/06 03:29:47;;;;;;;4.17;3.77;;;4.00;96.70;;;5.45;70.26;100405.47;3082950;46;20449;-66
2024/01/06 03:32:15;;;;;;;5.43;4.40;;;4.00;96.70;;;5.51;70.78;100401.47;3082526;46;20430;-68
2024/01/06 03:34:43;;;;;;;4.80;3.73;;;4.00;96.90;;;5.57;70.51;100408.69;3082619;46;20435;-67
2024/01/06 03:37:12;;;;;;;4.20;3.63;;;4.00;96.80;;;5.61;69.95;100411.81;3082026;46;20757;-67
2024/01/06 03:39:40;;;;;;;4.13;3.73;;;4.00;96.60;;;5.61;69.98;100414.44;3081996;46;20445;-71
2024/01/06 03:42:09;;;;;;;4.90;3.80;;;4.00;96.70;;;5.65;70.22;100416.59;3082067;46;21019;-68
2024/01/06 03:44:37;;;;;;;6.50;4.30;;;4.10;97.00;;;5.70;69.79;100423.97;3082511;46;20452;-67
2024/01/06 03:47:05;;;;;;;3.90;3.50;;;4.10;96.80;;;5.66;69.44;100423.44;3082269;46;20561;-68
2024/01/06 03:49:34;;;;;;;4.50;3.43;;;4.10;96.40;;;5.61;69.34;100425.66;3082240;46;20580;-68
2024/01/06 03:52:03;;;;;;;4.40;4.00;;;4.10;96.30;;;5.59;69.49;100432.84;3082500;46;20556;-67
2024/01/06 03:54:31;;;;;;;4.60;4.00;;;4.10;96.40;;;5.59;69.50;100432.00;3082175;46;20565;-66
2024/01/06 03:56:59;;;;;;;4.33;3.70;;;4.00;96.30;;;5.54;69.52;100440.28;3081891;46;20446;-67
2024/01/06 03:59:28;;;;;;;4.17;3.77;;;4.00;96.30;;;5.53;69.54;100445.66;3082359;46;21099;-68
2024/01/06 04:01:56;;;;;;;4.53;3.77;;;4.00;96.20;;;5.52;69.30;100438.78;3082027;46;21111;-68
2024/01/06 04:04:25;;;;;;;4.17;3.87;;;4.00;96.20;;;5.51;69.27;100447.63;3082018;46;20595;-68
2024/01/06 04:06:53;;;;;;;3.93;3.47;;;4.00;96.30;;;5.50;69.54;100449.41;3081597;46;20442;-68
2024/01/06 04:09:21;;;;;;;4.30;3.60;;;3.90;96.40;;;5.53;69.60;100448.28;3082203;46;20486;-67
2024/01/06 04:11:50;;;;;;;5.37;3.80;;;3.90;96.60;;;5.53;69.49;100448.28;3081941;46;21061;-67
2024/01/06 04:14:18;;;;;;;3.97;3.43;;;3.90;96.40;;;5.53;69.55;100453.50;3082002;46;20506;-68
2024/01/06 04:16:46;;;;;;;5.60;4.80;;;4.00;96.50;;;5.52;69.84;100451.84;3081843;46;21058;-68
2024/01/06 04:19:15;;;;;;;4.57;3.97;;;3.90;96.40;;;5.52;69.62;100457.06;3080912;46;20427;-67
2024/01/06 04:21:43;;;;;;;4.73;4.30;;;3.90;96.80;;;5.55;69.86;100456.78;3081806;46;21186;-67
2024/01/06 04:24:12;;;;;;;4.33;3.73;;;3.90;96.60;;;5.58;69.67;100465.16;3081764;46;20428;-65
2024/01/06 04:26:40;;;;;;;4.17;3.77;;;4.00;96.60;;;5.54;69.42;100465.59;3081374;46;20953;-67
2024/01/06 04:29:08;;;;;;;5.13;4.17;;;4.00;96.40;;;5.55;69.59;100462.00;3082059;46;20482;-68
2024/01/06 04:31:37;;;;;;;3.50;3.20;;;4.00;96.50;;;5.58;69.75;100461.69;3081764;46;21095;-69
2024/01/06 04:34:05;;;;;;;3.60;3.17;;;4.00;96.70;;;5.62;69.80;100463.03;3081602;46;20563;-67
2024/01/06 04:36:34;;;;;;;4.17;3.77;;;4.00;96.60;;;5.66;69.72;100470.41;3081636;46;20575;-68
2024/01/06 04:39:02;;;;;;;3.93;3.27;;;4.00;96.60;;;5.68;69.63;100476.31;3081654;46;20543;-68
2024/01/06 04:41:31;;;;;;;4.90;3.67;;;4.10;96.50;;;5.70;69.19;100482.22;3080831;46;20434;-67
2024/01/06 04:43:59;;;;;;;4.10;3.70;;;4.10;96.50;;;5.72;69.50;100484.66;3082008;46;20459;-68
2024/01/06 04:46:28;;;;;;;4.27;3.47;;;4.10;96.50;;;5.74;69.31;100488.78;3081447;46;21094;-67
2024/01/06 04:48:56;;;;;;;4.90;3.37;;;4.10;96.40;;;5.76;69.34;100491.22;3080575;46;20440;-68
2024/01/06 04:51:25;;;;;;;4.43;3.47;;;4.10;96.40;;;5.75;69.25;100481.78;3081674;46;20501;-67
2024/01/06 04:53:53;;;;;;;4.10;3.43;;;4.10;96.30;;;5.77;69.33;100487.66;3081457;46;21100;-67
2024/01/06 04:56:21;;;;;;;4.23;3.73;;;4.10;96.50;;;5.80;69.20;100492.59;3081475;46;20505;-68
2024/01/06 04:58:50;;;;;;;3.90;3.50;;;4.20;96.40;;;5.80;69.14;100497.81;3081035;46;21025;-68
2024/01/06 05:01:18;;;;;;;4.13;3.47;;;4.20;96.40;;;5.79;68.83;100498.78;3081558;46;20446;-67
2024/01/06 05:03:46;;;;;;;3.63;3.23;;;4.20;96.20;;;5.74;68.82;100504.44;3081773;46;21008;-69
2024/01/06 05:06:15;;;;;;;4.20;3.40;;;4.20;96.10;;;5.71;68.93;100503.91;3081236;46;21153;-68
2024/01/06 05:08:44;;;;;;;4.50;3.20;;;4.10;96.00;;;5.70;69.10;100510.94;3080789;46;20446;-66
2024/01/06 05:11:13;;;;;;;3.00;2.73;;;4.10;96.20;;;5.73;69.33;100515.03;3081281;46;20560;-67
2024/01/06 05:13:41;;;;;;;3.73;3.37;;;4.10;96.30;;;5.75;69.18;100520.94;3081469;46;21052;-67
2024/01/06 05:16:10;;;;;;;4.23;3.57;;;4.10;96.30;;;5.77;69.27;100524.22;3081403;46;20522;-68
2024/01/06 05:18:38;;;;;;;3.33;3.03;;;4.10;96.30;;;5.80;69.07;100529.94;3080783;46;21013;-67
2024/01/06 05:21:06;;;;;;;5.83;3.87;;;4.10;96.60;;;5.82;69.09;100538.47;3081393;46;20595;-68
2024/01/06 05:23:35;;;;;;;4.07;3.37;;;4.20;96.30;;;5.82;68.70;100548.09;3080627;46;20442;-68
2024/01/06 05:26:04;;;;;;;3.90;3.50;;;4.20;96.20;;;5.81;68.77;100541.22;3080989;46;20579;-69
2024/01/06 05:28:32;;;;;;;4.10;3.70;;;4.20;96.10;;;5.79;68.54;100553.59;3080672;46;21484;-68
2024/01/06 05:31:01;;;;;;;5.10;4.30;;;4.20;96.00;;;5.78;68.62;100551.94;3081063;46;20540;-66
2024/01/06 05:33:29;;;;;;;5.30;3.40;;;4.20;96.00;;;5.74;68.47;100553.22;3081072;46;20522;-68
2024/01/06 05:35:58;;;;;;;3.80;3.40;;;4.20;95.80;;;5.70;68.54;100551.88;3081287;46;20435;-68
2024/01/06 05:38:26;;;;;;;4.00;3.60;;;4.10;95.80;;;5.65;68.55;100562.78;3080389;46;20577;-67
2024/01/06 05:40:54;;;;;;;3.00;2.80;;;4.10;95.80;;;5.65;68.73;100561.94;3080900;46;20561;-67
2024/01/06 05:43:23;;;;;;;4.60;3.63;;;4.10;96.10;;;5.63;68.85;100564.72;3081033;46;20434;-67
2024/01/06 05:45:51;;;;;;;3.67;3.30;;;4.10;96.10;;;5.59;68.49;100568.56;3081072;46;20555;-68
2024/01/06 05:48:20;;;;;;;4.07;3.47;;;4.00;95.80;;;5.59;68.79;100567.72;3080728;46;20462;-67
2024/01/06 05:50:48;;;;;;;4.57;3.60;;;4.00;96.00;;;5.57;68.63;100567.88;3080574;46;20511;-67
2024/01/06 05:53:18;;;;;;;3.80;3.40;;;4.00;95.90;;;5.55;68.66;100572.44;3081087;46;21159;-68
2024/01/06 05:55:46;;;;;;;3.93;3.40;;;4.00;95.80;;;5.54;68.75;100580.44;3080745;46;20500;-68
2024/01/06 05:58:14;;;;;;;4.17;3.77;;;3.90;95.80;;;5.57;68.85;100585.34;3080225;46;20586;-67
2024/01/06 06:00:44;;;;;;;4.43;3.70;;;3.90;96.10;;;5.62;68.78;100593.56;3081653;46;20617;-69
2024/01/06 06:03:12;;;;;;;4.47;3.80;;;4.00;96.10;;;5.61;68.39;100595.34;3085793;46;21083;-68
2024/01/06 06:05:41;;;;;;;3.77;3.47;;;4.00;96.00;;;5.60;68.35;100605.94;3086015;46;20483;-67
2024/01/06 06:08:09;;;;;;;4.10;3.60;;;3.90;95.80;;;5.58;68.74;100606.09;3085653;46;21044;-67
2024/01/06 06:10:51;;;;;;;4.40;3.97;;;4.00;96.00;;;5.55;68.20;100613.38;3085480;46;20500;-65
2024/01/06 06:13:19;;;;;;;4.23;3.30;;;3.90;95.70;;;5.52;68.57;100608.44;3085872;46;20434;-68
2024/01/06 06:15:48;;;;;;;4.87;3.57;;;3.90;95.80;;;5.51;68.66;100619.84;3085456;46;21016;-67
2024/01/06 06:18:16;;;;;;;4.37;3.70;;;3.90;95.90;;;5.51;68.58;100622.47;3085362;46;21071;-67
2024/01/06 06:20:45;;;;;;;5.17;4.00;;;3.90;95.90;;;5.49;68.58;100625.22;3085645;46;20517;-67
2024/01/06 06:23:13;;;;;;;4.27;3.87;;;3.90;96.00;;;5.55;69.39;100629.03;3086005;46;20458;-68
2024/01/06 06:25:42;;;;;;;4.33;3.93;;;3.90;96.30;;;5.58;68.81;100633.97;3085354;46;20596;-66
2024/01/06 06:28:10;;;;;;;5.53;4.07;;;3.90;96.10;;;5.60;68.70;100642.47;3085065;46;20445;-67
2024/01/06 06:30:39;;;;;;;4.43;3.67;;;3.90;96.00;;;5.59;68.55;100648.66;3085885;46;20431;-68
2024/01/06 06:33:08;;;;;;;3.83;3.47;;;3.90;96.00;;;5.59;68.57;100651.25;3085736;46;20430;-66
2024/01/06 06:35:36;;;;;;;4.67;4.13;;;4.00;96.10;;;5.61;68.98;100647.53;3085550;46;20460;-68
2024/01/06 06:38:06;;;;;;;5.47;4.03;;;4.00;96.30;;;5.68;69.09;100651.22;3085344;46;20438;-68
2024/01/06 06:40:34;;;;;;;4.93;3.87;;;4.00;96.30;;;5.73;69.02;100656.81;3085571;46;20476;-67
2024/01/06 06:43:03;;;;;;;4.40;3.97;;;4.00;96.30;;;5.72;68.39;100662.19;3085560;46;20479;-68
2024/01/06 06:45:31;;;;;;;5.37;4.30;;;4.10;96.00;;;5.70;68.37;100670.19;3085448;46;20469;-68
2024/01/06 06:47:59;;;;;;;5.07;4.53;;;4.10;95.90;;;5.69;68.29;100675.53;3085236;46;20442;-68
2024/01/06 06:50:28;;;;;;;5.30;4.63;;;4.10;95.80;;;5.67;68.14;100680.91;3085488;46;20438;-68
2024/01/06 06:52:56;;;;;;;4.70;3.77;;;4.00;95.70;;;5.70;68.79;100687.63;3085595;46;20463;-68
2024/01/06 06:55:25;;;;;;;4.33;3.77;;;4.00;96.00;;;5.72;68.39;100689.13;3085719;46;21097;-67
2024/01/06 06:57:53;;;;;;;5.47;4.90;;;4.10;95.90;;;5.69;67.99;100693.81;3085188;46;20499;-69
2024/01/06 07:00:22;;;;;;;4.80;4.23;;;4.10;95.70;;;5.69;68.30;100699.03;3085724;46;20539;-68
2024/01/06 07:02:50;;;;;;;5.27;4.70;;;4.10;95.90;;;5.66;68.38;100701.94;3085867;46;20559;-68
2024/01/06 07:05:19;;;;;;;5.50;4.80;;;4.10;95.80;;;5.67;68.57;100704.41;3085906;46;21118;-68
2024/01/06 07:07:47;;;;;;;6.37;5.10;;;4.00;96.00;;;5.73;68.75;100710.84;3084727;46;20500;-69
2024/01/06 07:10:16;;;;;;;5.40;4.70;;;4.10;96.20;;;5.78;68.69;100709.44;3085547;46;20457;-68
2024/01/06 07:12:44;;;;;;;4.80;4.30;;;4.10;96.10;;;5.81;68.46;100710.94;3084001;46;20500;-67
2024/01/06 07:15:12;;;;;;;6.23;5.13;;;4.20;96.20;;;5.82;68.25;100717.81;3083062;46;20536;-67
2024/01/06 07:17:41;;;;;;;6.00;5.37;;;4.20;96.10;;;5.82;68.09;100728.25;3082299;46;20464;-67
2024/01/06 07:20:10;;;;;;;6.10;5.37;;;4.20;95.80;;;5.81;68.23;100724.00;3082915;46;20534;-68
2024/01/06 07:22:38;;;;;;;5.57;4.87;;;4.20;95.80;;;5.80;68.09;100728.38;3082775;46;20446;-68
2024/01/06 07:25:07;;;;;;;5.67;5.03;;;4.20;95.80;;;5.79;67.67;100731.97;3083185;46;20568;-67
2024/01/06 07:27:35;;;;;;;6.27;5.67;;;4.20;95.70;;;5.74;67.87;100738.59;3082093;46;20496;-68
2024/01/06 07:30:06;;;;;;;6.47;5.37;;;4.20;95.40;;;5.67;67.54;100737.50;3082696;46;20434;-69
2024/01/06 07:32:35;;;;;;;6.60;5.73;;;4.20;95.30;;;5.62;67.64;100744.94;3082467;46;20528;-68
2024/01/06 07:35:04;;;;;;;7.60;5.43;;;4.10;95.30;;;5.57;67.86;100755.00;3082952;46;20990;-67
2024/01/06 07:37:34;;;;;;;7.93;5.73;;;4.10;95.20;;;5.54;68.14;100758.69;3082410;46;20522;-68
2024/01/06 07:40:03;;;;;;;7.27;5.83;;;4.00;95.40;;;5.49;67.80;100758.34;3082791;46;21017;-67
2024/01/06 07:42:31;;;;;;;5.60;5.10;;;4.00;95.40;;;5.43;67.97;100761.50;3082370;46;20434;-68
2024/01/06 07:45:00;;;;;;;7.57;5.70;;;3.90;95.40;;;5.38;68.02;100759.31;3082583;46;20534;-68
2024/01/06 07:47:28;;;;;;;7.13;6.23;;;3.90;95.30;;;5.34;68.07;100767.56;3080989;46;20566;-68
2024/01/06 07:49:57;;;;;;;8.17;6.50;;;3.80;95.30;;;5.31;68.46;100771.28;3081579;46;20469;-67
2024/01/06 07:52:25;;;;;;;8.17;6.47;;;3.80;95.70;;;5.31;68.31;100779.09;3082265;46;20452;-68
2024/01/06 07:54:54;;;;;;;9.20;6.97;;;3.80;95.70;;;5.31;68.56;100784.31;3082342;46;21019;-66
2024/01/06 07:57:22;;;;;;;8.57;6.80;;;3.80;95.80;;;5.30;68.33;100787.88;3081701;46;20934;-65
2024/01/06 07:59:50;;;;;;;6.07;5.43;;;3.80;95.90;;;5.31;68.82;100780.88;3082244;46;20431;-68
2024/01/06 08:02:19;;;;;;;6.63;5.70;;;3.80;96.00;;;5.32;68.68;100785.97;3082026;46;20481;-67
2024/01/06 08:04:47;;;;;;;6.83;6.07;;;3.80;95.90;;;5.32;68.56;100799.03;3082332;46;20427;-67
2024/01/06 08:07:16;;;;;;;6.20;5.60;;;3.70;95.80;;;5.28;68.49;100800.22;3081660;46;20938;-68
2024/01/06 08:09:44;;;;;;;6.10;5.50;;;3.70;95.70;;;5.24;68.34;100808.47;3081890;46;20518;-69
2024/01/06 08:12:13;;;;;;;10.40;7.53;;;3.70;95.70;;;5.22;68.59;100820.84;3082059;46;20459;-67
2024/01/06 08:14:41;;;;;;;9.60;7.63;;;3.70;95.70;;;5.19;68.64;100821.94;3081883;46;21129;-68
2024/01/06 08:17:10;;;;;;;64.80;41.23;;;3.70;95.60;;;5.14;68.38;100824.13;3081648;46;20442;-67
2024/01/06 08:19:39;;;;;;;8.90;7.00;;;3.60;95.60;;;5.11;68.63;100824.41;3082261;46;20867;-67
2024/01/06 08:22:08;;;;;;;8.13;6.37;;;3.60;95.70;;;5.09;68.74;100839.38;3081812;46;20497;-68
2024/01/06 08:24:36;;;;;;;9.00;6.97;;;3.60;95.80;;;5.09;68.82;100838.53;3081349;46;20557;-66
2024/01/06 08:27:05;;;;;;;8.17;6.90;;;3.60;95.90;;;5.09;68.75;100846.38;3081164;46;20439;-68
2024/01/06 08:29:34;;;;;;;7.93;6.67;;;3.60;95.90;;;5.08;68.80;100845.56;3081911;43;20548;-68
2024/01/06 08:32:03;;;;;;;9.30;6.80;;;3.50;95.90;;;5.07;68.94;100853.50;3081779;46;20427;-67
2024/01/06 08:34:32;;;;;;;8.53;7.37;;;3.50;95.90;;;5.12;69.20;100854.75;3081859;46;20966;-67
2024/01/06 08:37:00;;;;;;;9.07;7.47;;;3.50;96.10;;;5.14;69.09;100868.47;3081895;46;20497;-67
2024/01/06 08:39:29;;;;;;;9.40;7.83;;;3.50;96.10;;;5.13;68.72;100858.19;3081736;46;20438;-66
2024/01/06 08:41:57;;;;;;;8.27;7.40;;;3.60;96.00;;;5.15;69.21;100857.09;3081411;46;20453;-66
2024/01/06 08:44:28;;;;;;;11.10;7.83;;;3.60;96.20;;;5.19;68.99;100866.28;3081676;46;20438;-67
2024/01/06 08:46:56;;;;;;;10.40;8.53;;;3.60;96.10;;;5.19;68.72;100863.69;3081379;46;20487;-68
2024/01/06 08:49:25;;;;;;;10.87;8.07;;;3.60;96.00;;;5.21;68.68;100871.34;3081257;46;20490;-68
2024/01/06 08:51:53;;;;;;;10.77;8.10;;;3.60;96.00;;;5.24;68.77;100878.91;3081829;46;20434;-68
2024/01/06 08:54:22;;;;;;;11.37;8.90;;;3.60;96.10;;;5.26;68.83;100883.03;3081378;46;21033;-67
2024/01/06 08:56:50;;;;;;;8.33;7.50;;;3.60;96.00;;;5.30;68.71;100887.03;3080887;46;21133;-67
2024/01/06 08:59:20;;;;;;;9.20;7.50;;;3.70;96.00;;;5.32;68.87;100885.13;3081545;46;20459;-68
2024/01/06 09:01:48;;;;;;;10.43;8.10;;;3.70;96.10;;;5.33;68.40;100891.97;3081366;46;20455;-67
2024/01/06 09:04:17;;;;;;;13.67;9.53;;;3.70;95.80;;;5.31;68.20;100899.13;3080821;46;20520;-67
2024/01/06 09:06:46;;;;;;;9.90;8.20;;;3.70;95.60;;;5.32;68.33;100895.56;3078049;43;21012;-68
2024/01/06 09:09:15;;;;;;;10.20;8.57;;;3.70;95.70;;;5.33;68.28;100899.78;3080299;46;21321;-69
2024/01/06 09:11:44;;;;;;;10.13;8.00;;;3.70;95.70;;;5.31;68.05;100901.72;3079635;46;22416;-68
2024/01/06 09:14:12;;;;;;;16.10;10.60;;;3.70;95.50;;;5.28;67.95;100909.81;3080315;46;20988;-68
2024/01/06 09:16:41;;;;;;;13.33;9.67;;;3.70;95.50;;;5.24;68.00;100913.66;3079156;46;20484;-67
2024/01/06 09:19:09;;;;;;;11.80;8.53;;;3.70;95.50;;;5.22;68.01;100920.81;3080164;46;20564;-67
2024/01/06 09:21:38;;;;;;;10.93;8.67;;;3.60;95.40;;;5.19;67.86;100918.47;3076017;46;20540;-67
2024/01/06 09:24:06;;;;;;;11.23;9.03;;;3.60;95.40;;;5.16;68.05;100926.56;3077922;46;20570;-68
2024/01/06 09:26:35;;;;;;;13.73;9.00;;;3.60;95.40;;;5.16;68.59;100928.38;3077075;46;21091;-68
2024/01/06 09:29:15;;;;;;;13.87;9.60;;;3.60;95.70;;;5.19;68.75;100928.91;3077980;46;20536;-69
2024/01/06 09:31:52;;;;;;;12.63;9.37;;;3.60;96.00;;;5.20;68.39;100938.38;3078067;43;20496;-66
2024/01/06 09:34:20;;;;;;;12.27;9.43;;;3.60;95.80;;;5.22;68.47;100940.84;3077945;46;21000;-69
2024/01/06 09:36:49;;;;;;;11.27;9.10;;;3.60;95.80;;;5.24;68.46;100944.97;3075395;46;21042;-65
2024/01/06 09:39:17;;;;;;;21.67;14.83;;;3.60;95.80;;;5.28;68.42;100948.13;3077495;46;20555;-67
2024/01/06 09:41:58;;;;;;;13.00;10.17;;;3.60;95.80;;;5.27;68.32;100960.38;3076828;43;20471;-69
2024/01/06 09:44:26;;;;;;;15.77;11.67;;;3.70;95.70;;;5.28;67.98;100959.38;3077271;46;20565;-66
2024/01/06 09:47:00;;;;;;;12.37;9.27;;;3.70;95.70;;;5.27;68.11;100965.59;3077407;46;20510;-69
2024/01/06 09:49:32;;;;;;;12.90;9.67;;;3.70;95.70;;;5.28;67.90;100975.03;3077578;46;20449;-67
2024/01/06 09:52:04;;;;;;;11.70;9.40;;;3.70;95.50;;;5.33;68.07;100974.63;3078313;46;20585;-67
2024/01/06 09:54:37;;;;;;;11.97;8.93;;;3.70;96.00;;;5.33;67.89;100972.03;3076926;46;20454;-68
2024/01/06 09:57:06;;;;;;;11.80;9.60;;;3.70;95.50;;;5.35;67.97;100973.53;3077164;46;20483;-67
2024/01/06 09:59:36;;;;;;;23.67;18.23;;;3.70;95.60;;;5.38;67.88;100975.88;3079666;46;20509;-67
2024/01/06 10:02:05;;;;;;;10.37;8.80;;;3.70;95.60;;;5.39;67.63;100979.34;3079795;46;21121;-67
2024/01/06 10:04:37;;;;;;;11.20;8.87;;;3.70;95.40;;;5.39;67.23;100979.34;3079083;46;20442;-69
2024/01/06 10:07:06;;;;;;;12.67;10.10;;;3.70;95.20;;;5.38;67.43;100977.66;3079135;46;20446;-68
2024/01/06 10:09:35;;;;;;;15.93;11.03;;;3.80;95.30;;;5.38;67.69;100994.16;3078946;46;20462;-67
2024/01/06 10:12:03;;;;;;;12.03;9.73;;;3.70;95.30;;;5.35;67.27;100994.41;3078987;43;20450;-67
2024/01/06 10:14:32;;;;;;;12.37;9.23;;;3.70;95.10;;;5.28;66.52;100993.31;3077897;46;20428;-66
2024/01/06 10:17:00;;;;;;;14.50;9.67;;;3.70;94.80;;;5.26;67.13;100992.63;3078269;46;20439;-67
2024/01/06 10:19:29;;;;;;;14.27;9.73;;;3.70;95.00;;;5.24;67.21;101004.97;3079582;46;21049;-67
2024/01/06 10:22:01;;;;;;;12.00;8.97;;;3.70;95.10;;;5.26;67.32;101002.22;3080305;46;21050;-67
2024/01/06 10:24:40;;;;;;;12.20;9.13;;;3.70;95.10;;;5.25;67.22;101014.44;3079058;43;20506;-70
2024/01/06 10:27:09;;;;;;;12.57;9.37;;;3.70;95.10;;;5.28;67.41;101014.19;3078172;46;20450;-67
2024/01/06 10:29:38;;;;;;;12.40;8.60;;;3.70;95.20;;;5.30;67.11;101017.47;3078839;46;20462;-74
2024/01/06 10:32:06;;;;;;;12.50;9.60;;;3.70;95.10;;;5.28;67.09;101016.78;3080333;46;20427;-68